createdAt,value
2023-03-17T00:02:21.732Z,18.50
2023-03-17T00:05:20.907Z,18.50
2023-03-17T00:08:16.036Z,18.40
2023-03-17T00:11:07.575Z,18.40
2023-03-17T00:13:55.859Z,18.30
2023-03-17T00:16:46.024Z,18.30
2023-03-17T00:19:36.518Z,18.30
2023-03-17T00:22:24.735Z,18.30
2023-03-17T00:25:23.434Z,18.30
2023-03-17T00:28:18.778Z,18.20
2023-03-17T00:31:15.441Z,18.20
2023-03-17T00:34:03.785Z,18.20
2023-03-17T00:36:52.515Z,18.20
2023-03-17T00:39:40.951Z,18.20
2023-03-17T00:42:29.553Z,18.20
2023-03-17T00:45:19.837Z,18.10
2023-03-17T00:48:14.010Z,18.10
2023-03-17T00:51:02.288Z,18.10
2023-03-17T00:53:50.645Z,18.00
2023-03-17T00:56:40.361Z,18.00
2023-03-17T00:59:30.957Z,18.00
2023-03-17T01:02:20.605Z,18.00
2023-03-17T01:05:09.163Z,18.00
2023-03-17T01:07:58.998Z,18.00
2023-03-17T01:10:48.026Z,17.90
2023-03-17T01:13:36.819Z,17.90
2023-03-17T01:16:25.152Z,17.90
2023-03-17T01:19:15.260Z,17.90
2023-03-17T01:22:03.469Z,17.90
2023-03-17T01:24:51.703Z,17.90
2023-03-17T01:27:41.765Z,17.90
2023-03-17T01:30:32.969Z,17.80
2023-03-17T01:33:21.244Z,17.80
2023-03-17T01:36:12.306Z,17.80
2023-03-17T01:39:00.608Z,17.80
2023-03-17T01:41:48.834Z,17.80
2023-03-17T01:44:37.148Z,17.80
2023-03-17T01:47:27.689Z,17.80
2023-03-17T01:50:16.356Z,17.80
2023-03-17T01:53:06.174Z,17.80
2023-03-17T01:55:54.867Z,17.70
2023-03-17T01:58:44.474Z,17.70
2023-03-17T02:01:38.728Z,17.70
2023-03-17T02:04:27.223Z,17.60
2023-03-17T02:07:15.638Z,17.60
2023-03-17T02:10:06.689Z,17.60
2023-03-17T02:12:59.862Z,17.50
2023-03-17T02:15:50.076Z,17.50
2023-03-17T02:18:38.270Z,17.50
2023-03-17T02:21:42.582Z,17.50
2023-03-17T02:24:34.717Z,17.50
2023-03-17T02:27:29.804Z,17.50
2023-03-17T02:30:21.208Z,17.40
2023-03-17T02:33:09.473Z,17.50
2023-03-17T02:35:58.951Z,17.50
2023-03-17T02:38:48.888Z,17.40
2023-03-17T02:41:37.422Z,17.40
2023-03-17T02:44:25.984Z,17.30
2023-03-17T02:47:14.502Z,17.30
2023-03-17T02:50:03.021Z,17.30
2023-03-17T02:52:51.735Z,17.30
2023-03-17T02:55:42.203Z,17.20
2023-03-17T02:58:30.490Z,17.20
2023-03-17T03:01:18.878Z,17.20
2023-03-17T03:04:07.641Z,17.20
2023-03-17T03:06:57.015Z,17.20
2023-03-17T03:09:45.551Z,17.20
2023-03-17T03:12:35.104Z,17.20
2023-03-17T03:15:23.401Z,17.20
2023-03-17T03:18:12.442Z,17.10
2023-03-17T03:21:01.075Z,17.10
2023-03-17T03:23:49.291Z,17.10
2023-03-17T03:26:37.655Z,17.00
2023-03-17T03:29:27.489Z,17.00
2023-03-17T03:32:15.843Z,17.00
2023-03-17T03:35:04.343Z,16.90
2023-03-17T03:37:52.679Z,16.90
2023-03-17T03:40:41.370Z,16.90
2023-03-17T03:43:29.884Z,17.00
2023-03-17T03:46:19.716Z,17.00
2023-03-17T03:49:08.002Z,17.00
2023-03-17T03:51:56.305Z,17.00
2023-03-17T03:54:44.494Z,17.00
2023-03-17T03:57:32.839Z,17.00
2023-03-17T04:00:22.079Z,17.00
2023-03-17T04:03:12.726Z,17.00
2023-03-17T04:06:01.032Z,17.00
2023-03-17T04:08:49.293Z,16.90
2023-03-17T04:11:37.646Z,16.90
2023-03-17T04:14:25.867Z,16.90
2023-03-17T04:17:15.186Z,16.90
2023-03-17T04:20:05.478Z,16.80
2023-03-17T04:22:54.373Z,16.80
2023-03-17T04:25:42.630Z,16.80
2023-03-17T04:28:32.245Z,16.80
2023-03-17T04:31:21.168Z,16.80
2023-03-17T04:34:13.585Z,16.80
2023-03-17T04:37:03.143Z,16.80
2023-03-17T04:39:52.271Z,16.90
2023-03-17T04:42:40.650Z,16.90
2023-03-17T04:45:28.904Z,16.80
2023-03-17T04:48:17.120Z,16.80
2023-03-17T04:51:06.100Z,16.80
2023-03-17T04:53:56.095Z,16.80
2023-03-17T04:56:44.368Z,16.80
2023-03-17T04:59:32.624Z,16.80
2023-03-17T05:02:20.965Z,16.80
2023-03-17T05:05:10.035Z,16.70
2023-03-17T05:07:58.174Z,16.70
2023-03-17T05:10:47.807Z,16.70
2023-03-17T05:13:36.891Z,16.70
2023-03-17T05:16:25.375Z,16.70
2023-03-17T05:19:13.638Z,16.70
2023-03-17T05:22:01.898Z,16.70
2023-03-17T05:24:50.061Z,16.70
2023-03-17T05:27:39.670Z,16.70
2023-03-17T05:30:28.203Z,16.70
2023-03-17T05:33:17.552Z,16.70
2023-03-17T05:36:07.197Z,16.60
2023-03-17T05:38:55.622Z,16.70
2023-03-17T05:41:43.850Z,16.60
2023-03-17T05:44:33.552Z,16.60
2023-03-17T05:47:22.893Z,16.50
2023-03-17T05:50:13.040Z,16.60
2023-03-17T05:53:01.835Z,16.50
2023-03-17T05:55:50.090Z,16.50
2023-03-17T05:58:38.297Z,16.50
2023-03-17T06:01:28.016Z,16.60
2023-03-17T06:04:16.414Z,16.60
2023-03-17T06:07:04.953Z,16.50
2023-03-17T06:09:53.139Z,16.60
2023-03-17T06:12:41.378Z,16.60
2023-03-17T06:15:30.097Z,16.60
2023-03-17T06:18:20.546Z,16.60
2023-03-17T06:21:08.742Z,16.60
2023-03-17T06:23:56.960Z,16.60
2023-03-17T06:26:45.131Z,16.60
2023-03-17T06:29:33.608Z,16.60
2023-03-17T06:32:22.075Z,16.50
2023-03-17T06:35:12.670Z,16.50
2023-03-17T06:38:01.306Z,16.50
2023-03-17T06:40:49.571Z,16.60
2023-03-17T06:43:37.794Z,16.60
2023-03-17T06:46:26.107Z,16.60
2023-03-17T06:49:14.502Z,16.60
2023-03-17T06:52:04.321Z,16.70
2023-03-17T06:54:52.637Z,16.70
2023-03-17T06:57:41.110Z,16.80
2023-03-17T07:00:30.479Z,16.80
2023-03-17T07:03:18.717Z,16.80
2023-03-17T07:06:07.358Z,16.80
2023-03-17T07:08:57.777Z,16.90
2023-03-17T07:11:45.997Z,16.80
2023-03-17T07:14:35.655Z,16.90
2023-03-17T07:17:23.965Z,16.90
2023-03-17T07:20:13.975Z,16.90
2023-03-17T07:23:02.602Z,17.00
2023-03-17T07:25:52.668Z,17.00
2023-03-17T07:28:41.116Z,17.10
2023-03-17T07:31:29.458Z,17.30
2023-03-17T07:34:17.945Z,17.50
2023-03-17T07:37:06.482Z,17.80
2023-03-17T07:39:54.830Z,17.90
2023-03-17T07:42:45.539Z,18.00
2023-03-17T07:45:36.051Z,18.20
2023-03-17T07:48:24.430Z,18.30
2023-03-17T07:51:15.620Z,18.50
2023-03-17T07:54:05.936Z,18.40
2023-03-17T07:56:54.524Z,18.40
2023-03-17T07:59:44.591Z,18.50
2023-03-17T08:02:32.881Z,18.80
2023-03-17T08:05:21.905Z,19.20
2023-03-17T08:08:10.752Z,19.50
2023-03-17T08:11:02.165Z,19.80
2023-03-17T08:13:51.065Z,20.20
2023-03-17T08:16:41.435Z,20.70
2023-03-17T08:19:29.910Z,20.80
2023-03-17T08:22:18.457Z,20.90
2023-03-17T08:25:07.425Z,20.90
2023-03-17T08:27:55.946Z,21.00
2023-03-17T08:30:44.847Z,21.00
2023-03-17T08:33:34.735Z,21.00
2023-03-17T08:36:24.081Z,21.00
2023-03-17T08:39:12.937Z,21.00
2023-03-17T08:42:01.312Z,21.00
2023-03-17T08:44:49.534Z,21.00
2023-03-17T08:47:38.297Z,21.00
2023-03-17T08:50:27.965Z,21.00
2023-03-17T08:53:16.318Z,20.90
2023-03-17T08:56:07.070Z,20.90
2023-03-17T08:58:55.966Z,20.80
2023-03-17T09:01:45.583Z,20.80
2023-03-17T09:04:34.052Z,20.80
2023-03-17T09:07:23.751Z,20.80
2023-03-17T09:10:13.887Z,20.80
2023-03-17T09:13:04.132Z,20.80
2023-03-17T09:15:53.534Z,20.80
2023-03-17T09:18:42.300Z,20.80
2023-03-17T09:21:30.638Z,20.90
2023-03-17T09:24:20.827Z,20.90
2023-03-17T09:27:09.400Z,20.90
2023-03-17T09:29:58.233Z,21.10
2023-03-17T09:32:47.125Z,21.20
2023-03-17T09:35:35.702Z,21.30
2023-03-17T09:38:24.534Z,21.40
2023-03-17T09:41:46.248Z,21.60
2023-03-17T09:44:58.108Z,21.80
2023-03-17T09:48:17.525Z,22.10
2023-03-17T09:51:09.117Z,22.40
2023-03-17T09:54:00.668Z,22.90
2023-03-17T09:56:58.709Z,23.30
2023-03-17T09:59:49.342Z,23.70
2023-03-17T10:02:39.002Z,24.10
2023-03-17T10:05:30.253Z,24.40
2023-03-17T10:08:31.173Z,24.80
2023-03-17T10:11:31.565Z,25.10
2023-03-17T10:14:39.732Z,25.30
2023-03-17T10:17:32.820Z,25.50
2023-03-17T10:20:26.525Z,25.80
2023-03-17T10:23:18.867Z,26.20
2023-03-17T10:26:14.829Z,26.40
2023-03-17T10:29:04.905Z,26.70
2023-03-17T10:31:58.327Z,26.80
2023-03-17T10:34:49.483Z,27.00
2023-03-17T10:37:43.892Z,27.00
2023-03-17T10:40:32.891Z,27.00
2023-03-17T10:43:23.061Z,27.10
2023-03-17T10:46:20.023Z,27.10
2023-03-17T10:49:17.276Z,27.20
2023-03-17T10:52:09.075Z,27.30
2023-03-17T10:55:02.867Z,27.30
2023-03-17T10:57:58.807Z,27.40
2023-03-17T11:00:56.926Z,27.40
2023-03-17T11:03:45.350Z,27.40
2023-03-17T11:06:40.060Z,27.50
2023-03-17T11:09:35.149Z,27.60
2023-03-17T11:12:27.501Z,27.60
2023-03-17T11:15:17.930Z,27.70
2023-03-17T11:18:14.373Z,27.80
2023-03-17T11:21:06.837Z,27.80
2023-03-17T11:24:04.628Z,27.90
2023-03-17T11:26:58.184Z,28.00
2023-03-17T11:30:10.351Z,28.10
2023-03-17T11:33:06.218Z,28.30
2023-03-17T11:35:59.171Z,28.30
2023-03-17T11:38:59.628Z,28.40
2023-03-17T11:42:05.998Z,28.60
2023-03-17T11:45:14.613Z,28.80
2023-03-17T11:48:14.121Z,28.90
2023-03-17T11:51:10.198Z,29.00
2023-03-17T11:54:10.720Z,29.10
2023-03-17T11:57:01.479Z,29.20
2023-03-17T11:59:55.426Z,28.90
2023-03-17T12:02:50.058Z,28.60
2023-03-17T12:05:39.876Z,28.30
2023-03-17T12:08:35.544Z,28.10
2023-03-17T12:11:29.261Z,27.90
2023-03-17T12:14:28.250Z,27.80
2023-03-17T12:17:20.961Z,27.70
2023-03-17T12:20:16.568Z,27.60
2023-03-17T12:23:12.963Z,27.40
2023-03-17T12:26:07.310Z,27.30
2023-03-17T12:29:01.401Z,27.30
2023-03-17T12:31:56.116Z,27.20
2023-03-17T12:34:51.117Z,27.10
2023-03-17T12:37:41.436Z,27.00
2023-03-17T12:40:34.256Z,26.90
2023-03-17T12:43:37.772Z,26.80
2023-03-17T12:46:51.392Z,26.70
2023-03-17T12:50:11.694Z,26.60
2023-03-17T12:53:26.650Z,26.60
2023-03-17T12:56:20.459Z,26.50
2023-03-17T12:59:14.862Z,26.40
2023-03-17T13:02:19.254Z,26.40
2023-03-17T13:05:10.164Z,26.30
2023-03-17T13:08:02.475Z,26.10
2023-03-17T13:10:51.290Z,26.00
2023-03-17T13:13:47.162Z,26.00
2023-03-17T13:16:39.280Z,25.90
2023-03-17T13:19:32.778Z,25.80
2023-03-17T13:22:36.105Z,25.80
2023-03-17T13:25:36.016Z,25.70
2023-03-17T13:28:27.114Z,25.70
2023-03-17T13:31:37.884Z,25.60
2023-03-17T13:34:32.302Z,25.60
2023-03-17T13:37:26.545Z,25.50
2023-03-17T13:40:21.424Z,25.40
2023-03-17T13:43:31.035Z,25.30
2023-03-17T13:46:28.028Z,25.30
2023-03-17T13:49:24.194Z,25.30
2023-03-17T13:52:17.608Z,25.30
2023-03-17T13:55:36.607Z,25.30
2023-03-17T13:58:26.603Z,25.20
2023-03-17T14:01:16.452Z,25.10
2023-03-17T14:04:10.659Z,25.00
2023-03-17T14:07:07.063Z,25.00
2023-03-17T14:10:02.742Z,25.00
2023-03-17T14:12:57.748Z,25.00
2023-03-17T14:15:52.253Z,25.00
2023-03-17T14:18:43.333Z,25.10
2023-03-17T14:21:33.725Z,25.10
2023-03-17T14:24:24.692Z,25.00
2023-03-17T14:27:16.111Z,25.00
2023-03-17T14:30:17.424Z,25.00
2023-03-17T14:33:08.160Z,25.00
2023-03-17T14:35:59.365Z,25.00
2023-03-17T14:38:50.078Z,25.00
2023-03-17T14:41:38.325Z,25.00
2023-03-17T14:44:28.592Z,25.00
2023-03-17T14:47:21.969Z,25.00
2023-03-17T14:50:18.300Z,25.00
2023-03-17T14:53:11.340Z,24.90
2023-03-17T14:56:00.848Z,24.90
2023-03-17T14:58:52.151Z,24.90
2023-03-17T15:01:47.425Z,24.90
2023-03-17T15:04:36.421Z,24.80
2023-03-17T15:07:36.682Z,24.80
2023-03-17T15:10:26.636Z,24.80
2023-03-17T15:13:14.968Z,24.80
2023-03-17T15:16:07.516Z,24.70
2023-03-17T15:19:05.031Z,24.70
2023-03-17T15:21:53.457Z,24.60
2023-03-17T15:24:44.147Z,24.50
2023-03-17T15:27:33.463Z,24.40
2023-03-17T15:30:23.766Z,24.30
2023-03-17T15:33:21.703Z,24.30
2023-03-17T15:36:31.194Z,24.20
2023-03-17T15:39:20.269Z,24.10
2023-03-17T15:42:09.049Z,24.00
2023-03-17T15:44:57.285Z,24.00
2023-03-17T15:47:47.762Z,23.90
2023-03-17T15:50:36.665Z,23.80
2023-03-17T15:53:26.572Z,23.80
2023-03-17T15:56:20.540Z,23.70
2023-03-17T15:59:09.078Z,23.70
2023-03-17T16:01:57.728Z,23.60
2023-03-17T16:04:46.108Z,23.50
2023-03-17T16:07:34.374Z,23.40
2023-03-17T16:10:26.392Z,23.40
2023-03-17T16:13:14.800Z,23.30
2023-03-17T16:16:05.681Z,23.30
2023-03-17T16:18:54.023Z,23.30
2023-03-17T16:21:42.551Z,23.20
2023-03-17T16:24:31.423Z,23.10
2023-03-17T16:27:21.102Z,23.10
2023-03-17T16:30:16.918Z,23.00
2023-03-17T16:33:16.542Z,23.00
2023-03-17T16:36:05.085Z,22.90
2023-03-17T16:38:53.445Z,22.80
2023-03-17T16:41:41.792Z,22.80
2023-03-17T16:44:32.086Z,22.70
2023-03-17T16:47:20.470Z,22.70
2023-03-17T16:50:16.457Z,22.60
2023-03-17T16:53:04.694Z,22.50
2023-03-17T16:55:54.328Z,22.50
2023-03-17T16:58:42.807Z,22.40
2023-03-17T17:01:32.691Z,22.30
2023-03-17T17:04:20.945Z,22.30
2023-03-17T17:07:09.256Z,22.20
2023-03-17T17:09:57.568Z,22.20
2023-03-17T17:12:46.177Z,22.10
2023-03-17T17:15:36.255Z,22.10
2023-03-17T17:18:26.185Z,22.00
2023-03-17T17:21:14.675Z,21.90
2023-03-17T17:24:03.476Z,21.90
2023-03-17T17:26:51.734Z,21.80
2023-03-17T17:29:40.052Z,21.80
2023-03-17T17:32:28.272Z,21.80
2023-03-17T17:35:18.268Z,21.70
2023-03-17T17:38:08.836Z,21.60
2023-03-17T17:40:59.068Z,21.60
2023-03-17T17:43:47.414Z,21.50
2023-03-17T17:46:36.002Z,21.50
2023-03-17T17:49:24.590Z,21.40
2023-03-17T17:52:14.342Z,21.40
2023-03-17T17:55:02.912Z,21.30
2023-03-17T17:57:52.594Z,21.30
2023-03-17T18:00:40.858Z,21.30
2023-03-17T18:03:31.930Z,21.30
2023-03-17T18:06:20.421Z,21.20
2023-03-17T18:09:10.578Z,21.20
2023-03-17T18:11:58.932Z,21.10
2023-03-17T18:14:47.168Z,21.10
2023-03-17T18:17:35.562Z,21.00
2023-03-17T18:20:24.463Z,21.00
2023-03-17T18:23:12.969Z,21.00
2023-03-17T18:26:04.623Z,20.90
2023-03-17T18:28:53.271Z,20.90
2023-03-17T18:31:44.789Z,20.90
2023-03-17T18:34:36.492Z,20.80
2023-03-17T18:37:25.381Z,20.80
2023-03-17T18:40:18.120Z,20.80
2023-03-17T18:43:08.607Z,20.80
2023-03-17T18:45:57.162Z,20.80
2023-03-17T18:48:45.591Z,20.70
2023-03-17T18:51:34.824Z,20.70
2023-03-17T18:54:23.583Z,20.70
2023-03-17T18:57:12.774Z,20.60
2023-03-17T19:00:02.817Z,20.60
2023-03-17T19:02:51.545Z,20.60
2023-03-17T19:05:40.251Z,20.60
2023-03-17T19:08:28.438Z,20.50
2023-03-17T19:11:19.430Z,20.50
2023-03-17T19:14:09.921Z,20.50
2023-03-17T19:16:59.696Z,20.50
2023-03-17T19:19:50.338Z,20.40
2023-03-17T19:22:38.607Z,20.40
2023-03-17T19:25:27.389Z,20.40
2023-03-17T19:28:15.719Z,20.30
2023-03-17T19:31:04.417Z,20.30
2023-03-17T19:33:55.519Z,20.30
2023-03-17T19:36:46.578Z,20.30
2023-03-17T19:39:34.845Z,20.30
2023-03-17T19:42:23.147Z,20.30
2023-03-17T19:45:12.075Z,20.30
2023-03-17T19:48:00.821Z,20.20
2023-03-17T19:50:51.239Z,20.20
2023-03-17T19:53:39.441Z,20.20
2023-03-17T19:56:28.037Z,20.20
2023-03-17T19:59:17.047Z,20.20
2023-03-17T20:02:06.220Z,20.20
2023-03-17T20:04:54.631Z,20.10
2023-03-17T20:07:44.917Z,20.10
2023-03-17T20:10:33.284Z,20.10
2023-03-17T20:13:22.040Z,20.00
2023-03-17T20:16:10.823Z,20.00
2023-03-17T20:18:59.078Z,20.10
2023-03-17T20:21:47.481Z,20.10
2023-03-17T20:24:38.276Z,20.10
2023-03-17T20:27:27.519Z,20.10
2023-03-17T20:30:16.230Z,20.00
2023-03-17T20:33:05.047Z,20.00
2023-03-17T20:35:53.372Z,20.00
2023-03-17T20:38:43.818Z,20.00
2023-03-17T20:41:33.474Z,19.90
2023-03-17T20:44:22.534Z,19.90
2023-03-17T20:47:11.516Z,19.90
2023-03-17T20:50:00.715Z,19.90
2023-03-17T20:52:49.496Z,19.90
2023-03-17T20:55:37.726Z,19.80
2023-03-17T20:58:27.849Z,19.80
2023-03-17T21:01:20.800Z,19.80
2023-03-17T21:04:10.167Z,19.80
2023-03-17T21:06:58.467Z,19.80
2023-03-17T21:09:47.204Z,19.70
2023-03-17T21:12:36.008Z,19.80
2023-03-17T21:15:25.757Z,19.70
2023-03-17T21:18:15.001Z,19.70
2023-03-17T21:21:03.386Z,19.70
2023-03-17T21:23:51.756Z,19.70
2023-03-17T21:26:40.284Z,19.70
2023-03-17T21:29:28.991Z,19.60
2023-03-17T21:32:18.798Z,19.60
2023-03-17T21:35:08.170Z,19.60
2023-03-17T21:37:57.211Z,19.60
2023-03-17T21:40:45.793Z,19.50
2023-03-17T21:43:34.220Z,19.50
2023-03-17T21:46:22.467Z,19.50
2023-03-17T21:49:13.285Z,19.50
2023-03-17T21:52:01.832Z,19.40
2023-03-17T21:54:50.494Z,19.40
2023-03-17T21:57:39.013Z,19.40
2023-03-17T22:00:35.924Z,19.40
2023-03-17T22:03:32.282Z,19.40
2023-03-17T22:06:22.659Z,19.30
2023-03-17T22:09:11.577Z,19.30
2023-03-17T22:11:59.960Z,19.30
2023-03-17T22:14:48.260Z,19.30
2023-03-17T22:17:36.830Z,19.30
2023-03-17T22:20:24.989Z,19.30
2023-03-17T22:23:14.592Z,19.30
2023-03-17T22:26:02.897Z,19.20
2023-03-17T22:28:51.664Z,19.20
2023-03-17T22:31:39.885Z,19.20
2023-03-17T22:34:28.348Z,19.20
2023-03-17T22:37:16.785Z,19.20
2023-03-17T22:40:08.468Z,19.10
2023-03-17T22:42:57.344Z,19.10
2023-03-17T22:45:46.056Z,19.10
2023-03-17T22:48:36.074Z,19.10
2023-03-17T22:51:26.700Z,19.00
2023-03-17T22:54:14.928Z,19.00
2023-03-17T22:57:05.692Z,19.00
2023-03-17T22:59:55.286Z,19.00
2023-03-17T23:02:44.292Z,19.00
2023-03-17T23:05:32.620Z,19.00
2023-03-17T23:08:21.716Z,18.90
2023-03-17T23:11:12.429Z,19.00
2023-03-17T23:14:02.077Z,18.90
2023-03-17T23:16:51.058Z,18.90
2023-03-17T23:19:39.422Z,18.90
2023-03-17T23:22:27.740Z,18.90
2023-03-17T23:25:16.312Z,18.90
2023-03-17T23:28:05.498Z,18.80
2023-03-17T23:30:55.615Z,18.80
2023-03-17T23:33:44.176Z,18.80
2023-03-17T23:36:32.417Z,18.80
2023-03-17T23:39:20.759Z,18.80
2023-03-17T23:42:09.165Z,18.80
2023-03-17T23:44:57.454Z,18.80
2023-03-17T23:47:49.439Z,18.80
2023-03-17T23:50:38.356Z,18.80
2023-03-17T23:53:28.000Z,18.80
2023-03-17T23:56:16.355Z,18.80
2023-03-17T23:59:07.509Z,18.80
